Time;durP1;ratioP1;P1;durP2;ratioP2;P2;SDS_P1;SDS_P2;PMS_P1;PMS_P2;Temp;Humidity;BMP_temperature;BMP_pressure;BME280_temperature;BME280_humidity;BME280_pressure;Samples;Min_cycle;Max_cycle;Signal;HPM_P1;HPM_P2
2021/09/07 00:00:16;;;;;;;7.07;6.47;;;17.30;99.90;;;;;;5035181;28;20181;-74
2021/09/07 00:02:42;;;;;;;7.47;6.60;;;17.20;99.90;;;;;;5035462;28;20194;-74
2021/09/07 00:05:11;;;;;;;7.90;7.10;;;17.20;99.90;;;;;;5035274;28;20224;-74
2021/09/07 00:07:36;;;;;;;7.03;6.33;;;17.20;99.90;;;;;;5035128;28;20167;-74
2021/09/07 00:10:04;;;;;;;6.77;6.17;;;17.20;99.90;;;;;;5035204;28;20197;-75
2021/09/07 00:12:29;;;;;;;7.17;6.33;;;17.10;99.90;;;;;;5034958;28;20213;-74
2021/09/07 00:14:55;;;;;;;9.20;7.33;;;17.10;99.90;;;;;;5035268;28;20182;-74
2021/09/07 00:17:21;;;;;;;7.43;6.73;;;17.10;99.90;;;;;;5028749;28;20266;-75
2021/09/07 00:19:47;;;;;;;7.93;7.23;;;17.00;99.90;;;;;;5034980;28;20667;-74
2021/09/07 00:22:12;;;;;;;7.47;6.77;;;16.90;99.90;;;;;;5033641;28;20263;-74
2021/09/07 00:24:38;;;;;;;7.93;7.20;;;16.90;99.90;;;;;;5034818;28;20644;-75
2021/09/07 00:27:04;;;;;;;7.40;6.70;;;16.80;99.90;;;;;;5033653;28;20174;-75
2021/09/07 00:29:29;;;;;;;11.53;7.17;;;16.80;99.90;;;;;;5034748;28;20170;-74
2021/09/07 00:31:55;;;;;;;8.30;7.50;;;16.80;99.90;;;;;;5025363;28;20218;-75
2021/09/07 00:34:21;;;;;;;7.23;6.60;;;16.70;99.90;;;;;;5020730;28;20261;-75
2021/09/07 00:36:47;;;;;;;7.87;7.07;;;16.70;99.90;;;;;;5033419;28;20181;-74
2021/09/07 00:39:13;;;;;;;8.70;8.00;;;16.60;99.90;;;;;;5034657;28;20180;-75
2021/09/07 00:41:40;;;;;;;7.80;6.67;;;16.50;99.90;;;;;;5034346;28;20293;-75
2021/09/07 00:44:13;;;;;;;8.00;7.30;;;16.50;99.90;;;;;;5034657;28;20181;-75
2021/09/07 00:46:39;;;;;;;8.00;7.30;;;16.50;99.90;;;;;;5034407;28;20223;-74
2021/09/07 00:49:04;;;;;;;8.40;7.03;;;16.50;99.90;;;;;;5024537;28;20178;-74
2021/09/07 00:51:31;;;;;;;8.40;7.50;;;16.50;99.90;;;;;;5034214;28;20197;-75
2021/09/07 00:53:57;;;;;;;11.57;8.23;;;16.50;99.90;;;;;;5034314;28;20182;-74
2021/09/07 00:56:24;;;;;;;8.00;7.27;;;16.50;99.90;;;;;;5033513;28;20189;-75
2021/09/07 00:58:51;;;;;;;7.77;7.07;;;16.50;99.90;;;;;;5033267;28;20546;-74
2021/09/07 01:01:17;;;;;;;8.33;7.53;;;16.40;99.90;;;;;;5033947;28;20202;-74
2021/09/07 01:03:43;;;;;;;7.87;7.13;;;16.40;99.90;;;;;;5032784;28;20189;-75
2021/09/07 01:06:08;;;;;;;8.00;7.30;;;16.40;99.90;;;;;;5034191;28;20230;-74
2021/09/07 01:08:36;;;;;;;7.80;7.10;;;16.40;99.90;;;;;;5033962;28;20182;-74
2021/09/07 01:11:02;;;;;;;8.80;7.40;;;16.30;99.90;;;;;;5033888;28;20325;-74
2021/09/07 01:13:27;;;;;;;8.67;7.63;;;16.30;99.90;;;;;;5034232;28;20681;-74
2021/09/07 01:15:53;;;;;;;7.83;6.87;;;16.30;99.90;;;;;;5033887;28;20200;-74
2021/09/07 01:18:18;;;;;;;8.13;7.40;;;16.30;99.90;;;;;;5033860;28;20196;-75
2021/09/07 01:20:44;;;;;;;7.80;7.10;;;16.20;99.90;;;;;;5033090;28;20213;-74
2021/09/07 01:23:10;;;;;;;8.17;7.33;;;16.30;99.90;;;;;;5034050;28;20201;-74
2021/09/07 01:25:36;;;;;;;9.70;7.57;;;16.20;99.90;;;;;;5033785;28;20585;-74
2021/09/07 01:28:02;;;;;;;8.20;7.50;;;16.10;99.90;;;;;;5033849;28;20178;-74
2021/09/07 01:30:29;;;;;;;8.53;7.67;;;16.20;99.90;;;;;;5033625;28;20182;-74
2021/09/07 01:32:56;;;;;;;8.97;8.07;;;16.20;99.90;;;;;;5025649;28;20600;-74
2021/09/07 01:35:21;;;;;;;7.40;6.80;;;16.10;99.90;;;;;;5024601;28;20299;-76
2021/09/07 01:37:49;;;;;;;9.63;7.67;;;16.10;99.90;;;;;;5034005;28;20264;-74
2021/09/07 01:40:15;;;;;;;8.07;7.30;;;16.10;99.90;;;;;;5025234;28;20191;-74
2021/09/07 01:42:41;;;;;;;7.87;7.10;;;16.00;99.90;;;;;;5027141;28;20260;-75
2021/09/07 01:45:09;;;;;;;8.43;7.63;;;16.00;99.90;;;;;;5033454;28;20173;-75
2021/09/07 01:47:37;;;;;;;8.03;7.33;;;16.00;99.90;;;;;;5027633;28;20202;-74
2021/09/07 01:50:03;;;;;;;7.93;7.23;;;16.00;99.90;;;;;;5025340;28;20190;-74
2021/09/07 01:52:29;;;;;;;7.97;7.17;;;16.00;99.90;;;;;;5028441;28;20202;-74
2021/09/07 01:54:56;;;;;;;7.83;7.10;;;16.00;99.90;;;;;;5033287;28;20189;-74
2021/09/07 01:57:21;;;;;;;8.20;7.40;;;16.00;99.90;;;;;;5033245;28;20178;-75
2021/09/07 01:59:47;;;;;;;8.73;7.83;;;16.00;99.90;;;;;;5033434;28;20194;-75
2021/09/07 02:02:13;;;;;;;8.53;7.67;;;15.90;99.90;;;;;;5033030;28;20209;-76
2021/09/07 02:04:39;;;;;;;9.13;8.10;;;15.90;99.90;;;;;;5033235;28;20527;-75
2021/09/07 02:07:05;;;;;;;8.93;7.93;;;15.90;99.90;;;;;;5033068;28;20182;-74
2021/09/07 02:09:30;;;;;;;8.57;7.87;;;15.80;99.90;;;;;;5033039;28;20224;-75
2021/09/07 02:11:56;;;;;;;8.37;7.53;;;15.90;99.90;;;;;;5033542;28;20194;-75
2021/09/07 02:14:22;;;;;;;8.53;7.73;;;15.80;99.90;;;;;;5033083;28;20590;-75
2021/09/07 02:16:48;;;;;;;9.57;8.67;;;15.70;99.90;;;;;;5032004;28;20719;-74
2021/09/07 02:19:13;;;;;;;8.60;7.80;;;15.70;99.90;;;;;;5026872;28;20178;-74
2021/09/07 02:21:39;;;;;;;9.17;6.93;;;15.70;99.90;;;;;;5031573;28;20213;-75
2021/09/07 02:24:05;;;;;;;7.73;6.93;;;15.60;99.90;;;;;;5033025;28;20174;-73
2021/09/07 02:26:30;;;;;;;8.70;7.90;;;15.50;99.90;;;;;;5005987;28;20223;-75
2021/09/07 02:28:56;;;;;;;9.20;8.20;;;15.50;99.90;;;;;;5013247;28;20241;-75
2021/09/07 02:31:21;;;;;;;8.20;7.50;;;15.50;99.90;;;;;;5026716;28;20221;-76
2021/09/07 02:33:47;;;;;;;8.20;7.50;;;15.50;99.90;;;;;;5030882;28;20262;-75
2021/09/07 02:36:13;;;;;;;8.90;8.10;;;15.50;99.90;;;;;;5030933;28;20205;-75
2021/09/07 02:38:38;;;;;;;8.43;7.67;;;15.40;99.90;;;;;;5029567;28;20178;-76
2021/09/07 02:41:04;;;;;;;8.83;7.93;;;15.40;99.90;;;;;;5030868;28;20224;-76
2021/09/07 02:43:29;;;;;;;8.77;7.50;;;15.30;99.90;;;;;;5030621;28;20325;-76
2021/09/07 02:45:55;;;;;;;9.07;8.17;;;15.30;99.90;;;;;;5030831;28;20219;-75
2021/09/07 02:48:21;;;;;;;8.90;8.00;;;15.30;99.90;;;;;;5031627;28;20178;-75
2021/09/07 02:50:47;;;;;;;9.63;8.57;;;15.30;99.90;;;;;;5032726;28;20569;-74
2021/09/07 02:53:12;;;;;;;8.77;7.90;;;15.30;99.90;;;;;;5031744;28;20270;-74
2021/09/07 02:55:38;;;;;;;9.30;8.37;;;15.30;99.90;;;;;;5031699;28;20183;-74
2021/09/07 02:58:04;;;;;;;9.23;8.33;;;15.30;99.90;;;;;;5031714;28;20186;-74
2021/09/07 03:00:30;;;;;;;10.33;7.40;;;15.20;99.90;;;;;;5032751;28;20239;-74
2021/09/07 03:02:56;;;;;;;8.40;7.60;;;15.20;99.90;;;;;;5032608;28;20206;-75
2021/09/07 03:05:22;;;;;;;8.33;7.63;;;15.10;99.90;;;;;;5032569;28;20185;-75
2021/09/07 03:07:48;;;;;;;8.27;7.57;;;14.90;99.90;;;;;;5032687;28;20595;-74
2021/09/07 03:10:14;;;;;;;8.63;7.77;;;14.80;99.90;;;;;;5032725;28;20185;-75
2021/09/07 03:12:40;;;;;;;8.33;7.47;;;14.80;99.90;;;;;;5032531;28;20182;-74
2021/09/07 03:15:06;;;;;;;8.80;8.00;;;14.80;99.90;;;;;;5031290;28;20236;-74
2021/09/07 03:17:32;;;;;;;8.50;7.70;;;14.80;99.90;;;;;;5032434;28;20194;-75
2021/09/07 03:19:57;;;;;;;8.80;7.63;;;14.80;99.90;;;;;;5033587;28;20285;-75
2021/09/07 03:22:23;;;;;;;10.23;7.53;;;14.80;99.90;;;;;;5035913;28;20219;-75
2021/09/07 03:24:48;;;;;;;9.47;8.60;;;14.80;99.90;;;;;;5036159;28;20641;-74
2021/09/07 03:27:14;;;;;;;8.67;7.93;;;14.80;99.90;;;;;;5036229;28;20657;-74
2021/09/07 03:29:40;;;;;;;9.27;8.43;;;14.80;99.90;;;;;;5027212;28;20560;-75
2021/09/07 03:32:06;;;;;;;15.83;9.17;;;14.80;99.90;;;;;;5035782;28;20226;-74
2021/09/07 03:34:31;;;;;;;9.97;9.07;;;14.80;99.90;;;;;;5035787;28;20719;-76
2021/09/07 03:36:57;;;;;;;10.60;8.20;;;14.70;99.90;;;;;;5035144;28;20218;-74
2021/09/07 03:39:23;;;;;;;9.27;8.37;;;14.70;99.90;;;;;;5035711;28;20260;-74
2021/09/07 03:41:48;;;;;;;8.90;8.10;;;14.70;99.90;;;;;;5035534;28;20684;-75
2021/09/07 03:44:14;;;;;;;9.37;8.53;;;14.70;99.90;;;;;;5035711;28;20186;-74
2021/09/07 03:46:40;;;;;;;9.20;8.30;;;14.70;99.90;;;;;;5035569;28;20594;-75
2021/09/07 03:49:05;;;;;;;9.03;8.23;;;14.70;99.90;;;;;;5034350;28;20178;-75
2021/09/07 03:51:31;;;;;;;10.97;8.80;;;14.60;99.90;;;;;;5035480;28;20734;-74
2021/09/07 03:53:57;;;;;;;9.97;9.07;;;14.60;99.90;;;;;;5035515;28;20170;-74
2021/09/07 03:56:24;;;;;;;10.40;9.30;;;14.50;99.90;;;;;;5021488;28;20221;-75
2021/09/07 03:58:50;;;;;;;10.50;9.40;;;14.50;99.90;;;;;;5029573;28;20229;-75
2021/09/07 04:01:15;;;;;;;10.00;9.00;;;14.50;99.90;;;;;;5023679;28;20577;-75
2021/09/07 04:03:41;;;;;;;10.90;9.50;;;14.50;99.90;;;;;;5015927;28;20704;-75
2021/09/07 04:06:07;;;;;;;9.47;8.57;;;14.50;99.90;;;;;;5018606;28;20643;-74
2021/09/07 04:08:32;;;;;;;9.73;8.43;;;14.50;99.90;;;;;;5000536;28;20188;-74
2021/09/07 04:10:58;;;;;;;8.50;7.80;;;14.50;99.90;;;;;;5023292;28;20888;-75
2021/09/07 04:13:23;;;;;;;8.67;7.80;;;14.40;99.90;;;;;;5032988;28;20214;-75
2021/09/07 04:15:49;;;;;;;9.40;8.57;;;14.40;99.90;;;;;;5027999;28;20195;-75
2021/09/07 04:18:15;;;;;;;9.97;9.07;;;14.30;99.90;;;;;;5024543;28;20191;-76
2021/09/07 04:20:41;;;;;;;9.80;8.97;;;14.40;99.90;;;;;;5023797;28;20209;-75
2021/09/07 04:23:06;;;;;;;9.53;8.63;;;14.40;99.90;;;;;;5032918;28;20206;-75
2021/09/07 04:25:32;;;;;;;10.17;9.20;;;14.40;99.90;;;;;;5024093;28;20202;-75
2021/09/07 04:27:57;;;;;;;9.93;8.40;;;14.30;99.90;;;;;;5011886;28;20681;-75
2021/09/07 04:30:23;;;;;;;9.57;8.77;;;14.30;99.90;;;;;;5017766;28;20557;-74
2021/09/07 04:32:49;;;;;;;10.40;8.40;;;14.30;99.90;;;;;;5014225;28;20194;-74
2021/09/07 04:35:15;;;;;;;9.57;8.77;;;14.30;99.90;;;;;;5014745;28;20179;-74
2021/09/07 04:37:40;;;;;;;9.80;8.90;;;14.30;99.90;;;;;;5015797;28;20203;-73
2021/09/07 04:40:06;;;;;;;9.87;9.00;;;14.30;99.90;;;;;;5016697;28;20708;-75
2021/09/07 04:42:32;;;;;;;9.40;8.43;;;14.30;99.90;;;;;;5018249;28;20294;-75
2021/09/07 04:44:58;;;;;;;9.27;8.47;;;14.20;99.90;;;;;;5014165;28;20541;-75
2021/09/07 04:47:23;;;;;;;10.00;9.00;;;14.20;99.90;;;;;;5021870;28;20688;-75
2021/09/07 04:49:49;;;;;;;10.40;9.17;;;14.10;99.90;;;;;;5007665;28;20181;-75
2021/09/07 04:52:14;;;;;;;9.60;8.60;;;14.20;99.90;;;;;;5001003;28;20213;-74
2021/09/07 04:54:40;;;;;;;11.03;9.20;;;14.20;99.90;;;;;;5013391;28;20188;-75
2021/09/07 04:57:06;;;;;;;9.73;8.80;;;14.10;99.90;;;;;;5012942;28;20221;-75
2021/09/07 04:59:31;;;;;;;9.90;9.00;;;14.20;99.90;;;;;;5009142;28;20517;-75
2021/09/07 05:01:57;;;;;;;9.60;8.80;;;14.20;99.90;;;;;;5006517;28;20212;-75
2021/09/07 05:04:22;;;;;;;9.40;8.50;;;14.10;99.90;;;;;;5007517;28;20188;-75
2021/09/07 05:06:48;;;;;;;9.63;8.33;;;14.10;99.90;;;;;;5008224;28;20189;-74
2021/09/07 05:09:14;;;;;;;9.50;8.70;;;14.10;99.90;;;;;;5012868;28;20193;-75
2021/09/07 05:11:39;;;;;;;10.00;8.83;;;14.10;99.90;;;;;;5013078;28;20636;-74
2021/09/07 05:14:08;;;;;;;9.37;8.57;;;14.10;99.90;;;;;;5025445;28;20649;-75
2021/09/07 05:16:33;;;;;;;9.70;8.80;;;14.10;99.90;;;;;;5009260;28;20214;-75
2021/09/07 05:18:59;;;;;;;10.53;8.70;;;14.10;99.90;;;;;;5012162;28;20265;-75
2021/09/07 05:21:25;;;;;;;10.17;9.13;;;14.00;99.90;;;;;;5013874;28;20217;-75
2021/09/07 05:23:50;;;;;;;9.97;9.07;;;14.10;99.90;;;;;;5018555;28;20553;-75
2021/09/07 05:26:16;;;;;;;9.37;8.47;;;14.10;99.90;;;;;;5004613;28;20611;-75
2021/09/07 05:28:41;;;;;;;9.43;8.53;;;14.20;99.90;;;;;;5014583;28;20179;-74
2021/09/07 05:31:07;;;;;;;9.80;8.80;;;14.20;99.90;;;;;;5016189;28;20227;-75
2021/09/07 05:33:33;;;;;;;9.20;8.30;;;14.20;99.90;;;;;;5052990;23;20221;-78
2021/09/07 05:35:58;;;;;;;9.70;8.70;;;14.20;99.90;;;;;;5036477;28;20175;-78
2021/09/07 05:38:24;;;;;;;9.67;8.67;;;14.30;99.90;;;;;;5039538;28;20187;-78
2021/09/07 05:40:51;;;;;;;12.03;9.60;;;14.30;99.90;;;;;;5036231;28;20189;-78
2021/09/07 05:43:16;;;;;;;9.70;8.80;;;14.30;99.90;;;;;;5029968;28;20230;-78
2021/09/07 05:45:42;;;;;;;9.77;8.77;;;14.40;99.90;;;;;;5031680;28;20199;-78
2021/09/07 05:48:08;;;;;;;10.03;9.23;;;14.40;99.90;;;;;;5029265;28;20643;-78
2021/09/07 05:50:33;;;;;;;12.27;9.43;;;14.50;99.90;;;;;;5029181;28;20174;-78
2021/09/07 05:52:59;;;;;;;10.83;9.63;;;14.50;99.90;;;;;;5022603;28;20207;-78
2021/09/07 05:55:25;;;;;;;10.00;9.07;;;14.60;99.90;;;;;;5024998;28;20186;-78
2021/09/07 05:57:53;;;;;;;13.40;8.77;;;14.60;99.90;;;;;;5030271;28;20811;-78
2021/09/07 06:00:19;;;;;;;8.90;8.10;;;14.70;99.90;;;;;;5027212;28;20190;-78
2021/09/07 06:02:45;;;;;;;10.90;9.20;;;14.80;99.90;;;;;;5031553;28;20207;-78
2021/09/07 06:05:11;;;;;;;9.60;8.70;;;14.90;99.90;;;;;;5022532;28;20167;-78
2021/09/07 06:07:38;;;;;;;11.33;8.97;;;14.90;99.90;;;;;;5027361;28;20186;-78
2021/09/07 06:10:04;;;;;;;12.30;9.47;;;14.90;99.90;;;;;;5027641;28;20171;-78
2021/09/07 06:12:30;;;;;;;9.73;8.80;;;14.90;99.90;;;;;;5028159;28;20194;-78
2021/09/07 06:14:56;;;;;;;9.93;8.47;;;15.00;99.90;;;;;;5024636;28;20190;-78
2021/09/07 06:17:21;;;;;;;10.63;9.27;;;15.00;99.90;;;;;;5029359;28;20202;-78
2021/09/07 06:19:47;;;;;;;17.37;10.27;;;15.10;99.90;;;;;;5027414;28;20191;-78
2021/09/07 06:22:12;;;;;;;10.73;9.30;;;15.00;99.90;;;;;;5024717;28;20199;-78
2021/09/07 06:24:38;;;;;;;12.73;8.87;;;15.00;99.90;;;;;;5029652;28;20183;-78
2021/09/07 06:27:04;;;;;;;10.43;9.33;;;15.10;99.90;;;;;;5031332;28;20638;-78
2021/09/07 06:29:30;;;;;;;10.40;9.33;;;15.00;99.90;;;;;;5022691;28;20170;-78
2021/09/07 06:31:55;;;;;;;13.23;9.53;;;15.10;99.90;;;;;;5029915;28;20178;-78
2021/09/07 06:34:24;;;;;;;10.87;9.73;;;15.10;99.90;;;;;;5026369;28;20205;-77
2021/09/07 06:36:54;;;;;;;12.10;9.20;;;15.20;99.90;;;;;;5022725;28;20180;-78
2021/09/07 06:39:20;;;;;;;11.17;9.43;;;15.30;99.90;;;;;;5027382;28;20182;-78
2021/09/07 06:41:46;;;;;;;14.90;9.40;;;15.40;99.90;;;;;;5035207;28;20684;-78
2021/09/07 06:44:12;;;;;;;10.50;9.50;;;15.50;99.90;;;;;;5028172;28;20199;-78
2021/09/07 06:46:38;;;;;;;9.90;8.90;;;15.50;99.90;;;;;;5030837;28;20181;-79
2021/09/07 06:49:04;;;;;;;10.97;9.87;;;15.50;99.90;;;;;;5027721;28;20238;-78
2021/09/07 06:51:29;;;;;;;10.00;9.10;;;15.50;99.90;;;;;;5022937;28;20185;-78
2021/09/07 06:53:55;;;;;;;15.00;9.90;;;15.60;99.90;;;;;;5020929;28;20214;-79
2021/09/07 06:56:21;;;;;;;10.43;9.53;;;15.60;99.90;;;;;;5028102;28;20179;-78
2021/09/07 06:58:46;;;;;;;10.67;9.33;;;15.70;99.90;;;;;;5030471;28;20178;-78
2021/09/07 07:01:12;;;;;;;10.50;9.37;;;15.80;99.90;;;;;;5030643;28;20183;-79
2021/09/07 07:03:37;;;;;;;10.90;9.50;;;15.90;99.90;;;;;;5025736;28;20215;-79
2021/09/07 07:06:03;;;;;;;11.73;10.53;;;16.00;99.90;;;;;;5022272;28;20182;-78
2021/09/07 07:08:29;;;;;;;10.47;8.97;;;15.90;99.90;;;;;;5026597;28;20183;-78
2021/09/07 07:10:54;;;;;;;10.37;9.30;;;16.00;99.90;;;;;;5026845;28;20231;-78
2021/09/07 07:13:20;;;;;;;10.13;9.23;;;16.10;99.90;;;;;;5032287;28;20636;-78
2021/09/07 07:15:46;;;;;;;10.80;9.80;;;16.10;99.90;;;;;;5022295;28;20187;-78
2021/09/07 07:18:12;;;;;;;11.47;10.17;;;16.20;99.90;;;;;;5026102;28;20180;-78
2021/09/07 07:20:38;;;;;;;10.67;9.67;;;16.20;99.90;;;;;;5034848;28;20204;-78
2021/09/07 07:23:03;;;;;;;10.73;9.70;;;16.30;99.90;;;;;;5022814;28;20218;-78
2021/09/07 07:25:31;;;;;;;11.37;9.77;;;16.30;99.90;;;;;;5021639;28;20233;-80
2021/09/07 07:27:57;;;;;;;11.40;10.20;;;16.30;99.90;;;;;;5027643;28;20174;-79
2021/09/07 07:30:22;;;;;;;11.33;10.33;;;16.30;99.90;;;;;;5026259;28;20179;-79
2021/09/07 07:32:48;;;;;;;11.33;10.20;;;16.30;99.90;;;;;;5029406;28;20229;-79
2021/09/07 07:35:14;;;;;;;13.67;11.60;;;16.30;99.90;;;;;;5027823;28;20192;-79
2021/09/07 07:37:39;;;;;;;14.57;10.80;;;16.40;99.90;;;;;;5014718;28;20271;-76
2021/09/07 07:40:06;;;;;;;12.03;10.57;;;16.50;99.90;;;;;;5018239;28;20708;-79
2021/09/07 07:42:31;;;;;;;11.47;10.30;;;16.50;99.90;;;;;;5019714;28;20202;-80
2021/09/07 07:44:57;;;;;;;11.50;10.50;;;16.50;99.90;;;;;;5028554;28;20268;-79
2021/09/07 07:47:23;;;;;;;13.27;12.07;;;16.60;99.90;;;;;;5019096;28;20218;-76
2021/09/07 07:49:48;;;;;;;12.50;11.30;;;16.60;99.90;;;;;;5014867;28;20244;-77
2021/09/07 07:52:14;;;;;;;14.07;11.40;;;16.70;99.90;;;;;;5020967;28;20189;-77
2021/09/07 07:54:40;;;;;;;12.03;10.87;;;16.70;99.90;;;;;;5023635;28;20599;-76
2021/09/07 07:57:06;;;;;;;13.00;11.50;;;16.80;99.90;;;;;;5021665;28;20187;-77
2021/09/07 07:59:32;;;;;;;13.37;12.07;;;16.80;99.90;;;;;;5023471;28;20217;-77
2021/09/07 08:01:58;;;;;;;13.63;12.20;;;16.90;99.90;;;;;;5023230;28;20230;-77
2021/09/07 08:04:23;;;;;;;12.37;11.07;;;16.90;99.90;;;;;;5010713;28;20281;-78
2021/09/07 08:06:49;;;;;;;13.60;10.77;;;17.00;99.90;;;;;;5017983;28;20190;-78
2021/09/07 08:09:15;;;;;;;14.80;11.20;;;17.10;99.90;;;;;;5016979;28;20193;-77
2021/09/07 08:11:41;;;;;;;12.37;11.07;;;17.20;99.90;;;;;;5014995;28;20317;-76
2021/09/07 08:14:07;;;;;;;12.20;10.90;;;17.30;99.90;;;;;;5017181;28;20207;-77
2021/09/07 08:16:33;;;;;;;12.10;11.00;;;17.40;99.90;;;;;;5020114;28;20182;-78
2021/09/07 08:18:59;;;;;;;11.97;10.90;;;17.40;99.90;;;;;;5018591;28;20186;-78
2021/09/07 08:21:25;;;;;;;12.20;10.90;;;17.50;99.90;;;;;;5016114;28;20221;-77
2021/09/07 08:23:51;;;;;;;10.63;9.73;;;17.50;99.90;;;;;;5020592;28;20199;-78
2021/09/07 08:26:17;;;;;;;11.93;10.60;;;17.60;99.90;;;;;;5014597;28;20182;-77
2021/09/07 08:28:42;;;;;;;12.00;10.90;;;17.70;99.90;;;;;;5023883;28;20672;-78
2021/09/07 08:31:09;;;;;;;14.13;11.67;;;17.80;99.90;;;;;;5022958;28;21122;-76
2021/09/07 08:33:35;;;;;;;14.47;12.23;;;17.80;99.90;;;;;;5030558;28;20700;-78
2021/09/07 08:36:00;;;;;;;13.73;12.23;;;17.80;99.90;;;;;;5022885;28;20183;-78
2021/09/07 08:38:26;;;;;;;12.53;11.40;;;17.80;99.90;;;;;;5026595;28;20653;-78
2021/09/07 08:40:52;;;;;;;12.80;11.60;;;17.80;99.90;;;;;;5027868;28;20274;-78
2021/09/07 08:43:21;;;;;;;14.10;11.77;;;17.80;99.90;;;;;;5023015;28;20781;-78
2021/09/07 08:45:54;;;;;;;12.13;10.93;;;17.90;99.90;;;;;;5023473;28;20522;-78
2021/09/07 08:48:22;;;;;;;12.10;11.00;;;17.90;99.90;;;;;;5020721;28;20254;-78
2021/09/07 08:50:48;;;;;;;12.63;11.40;;;18.00;99.90;;;;;;5024308;28;20269;-78
2021/09/07 08:53:14;;;;;;;12.30;11.10;;;18.10;99.90;;;;;;5023424;28;20226;-78
2021/09/07 08:55:40;;;;;;;12.87;11.67;;;18.20;99.90;;;;;;5019020;28;20642;-78
2021/09/07 08:58:06;;;;;;;14.53;11.13;;;18.20;99.90;;;;;;5025870;28;20210;-78
2021/09/07 09:00:35;;;;;;;11.67;10.27;;;18.30;99.90;;;;;;5026486;28;20279;-78
2021/09/07 09:03:12;;;;;;;11.20;10.10;;;18.30;99.90;;;;;;5022008;28;20221;-78
2021/09/07 09:05:43;;;;;;;11.93;10.40;;;18.40;99.90;;;;;;5017133;28;20192;-78
2021/09/07 09:08:11;;;;;;;13.10;10.67;;;18.40;99.90;;;;;;5015113;28;20183;-77
2021/09/07 09:10:37;;;;;;;10.57;9.00;;;18.50;99.90;;;;;;5015931;28;20183;-78
2021/09/07 09:13:08;;;;;;;11.97;10.77;;;18.50;99.90;;;;;;5021279;28;20199;-78
2021/09/07 09:15:34;;;;;;;10.63;9.57;;;18.60;99.90;;;;;;5016402;28;20262;-77
2021/09/07 09:18:18;;;;;;;11.40;10.40;;;18.60;99.90;;;;;;5015453;28;20175;-78
2021/09/07 09:20:43;;;;;;;11.10;9.63;;;18.70;99.90;;;;;;5018428;28;20617;-77
2021/09/07 09:23:09;;;;;;;9.90;8.90;;;18.80;99.90;;;;;;5025761;28;20296;-78
2021/09/07 09:25:42;;;;;;;10.30;9.30;;;19.00;99.90;;;;;;5027199;28;20176;-77
2021/09/07 09:28:17;;;;;;;9.70;8.87;;;19.10;99.90;;;;;;5013882;28;20265;-77
2021/09/07 09:30:46;;;;;;;13.77;8.87;;;19.10;99.90;;;;;;5016347;28;20175;-77
2021/09/07 09:33:14;;;;;;;11.23;10.23;;;19.20;99.90;;;;;;5020620;28;20237;-78
2021/09/07 09:35:45;;;;;;;10.63;9.53;;;19.30;99.90;;;;;;5022806;28;20267;-77
2021/09/07 09:38:11;;;;;;;13.53;9.30;;;19.40;99.90;;;;;;5023167;28;20189;-78
2021/09/07 09:40:37;;;;;;;10.73;9.73;;;19.40;99.90;;;;;;5021586;28;20190;-77
2021/09/07 09:43:22;;;;;;;10.77;9.43;;;19.60;99.90;;;;;;5019517;28;20218;-78
2021/09/07 09:45:48;;;;;;;10.43;9.47;;;19.60;99.90;;;;;;5001157;28;20213;-78
2021/09/07 09:48:31;;;;;;;8.57;7.73;;;19.70;99.90;;;;;;5025140;28;20606;-78
2021/09/07 09:50:58;;;;;;;10.57;9.67;;;19.80;99.90;;;;;;5019877;28;20169;-78
2021/09/07 09:53:26;;;;;;;10.17;9.17;;;19.80;99.90;;;;;;5018789;28;20675;-78
2021/09/07 09:55:54;;;;;;;9.57;8.67;;;20.00;99.90;;;;;;5013839;28;20218;-79
2021/09/07 09:58:21;;;;;;;9.90;9.00;;;20.20;99.90;;;;;;5017313;28;20182;-78
2021/09/07 10:00:48;;;;;;;8.87;8.07;;;20.30;99.90;;;;;;5020822;28;20175;-78
2021/09/07 10:03:15;;;;;;;9.43;8.40;;;20.30;99.90;;;;;;5022457;28;20581;-78
2021/09/07 10:05:42;;;;;;;11.83;8.87;;;20.50;99.90;;;;;;5020435;28;20200;-78
2021/09/07 10:08:11;;;;;;;9.13;8.43;;;20.60;99.90;;;;;;5020152;28;20175;-79
2021/09/07 10:10:40;;;;;;;10.33;9.30;;;20.60;99.90;;;;;;5019402;28;20661;-77
2021/09/07 10:13:08;;;;;;;9.63;8.70;;;20.70;99.90;;;;;;5022526;28;20199;-78
2021/09/07 10:15:43;;;;;;;9.60;8.43;;;20.90;99.90;;;;;;5025710;28;20182;-78
2021/09/07 10:24:58;;;;;;;10.37;8.67;;;21.10;99.90;;;;;;5011463;28;20253;-78
2021/09/07 10:28:03;;;;;;;9.93;8.43;;;21.10;99.90;;;;;;5021142;28;20175;-78
2021/09/07 10:31:04;;;;;;;10.13;9.23;;;21.20;99.90;;;;;;5023238;28;20178;-78
2021/09/07 10:33:40;;;;;;;10.13;8.90;;;21.30;99.90;;;;;;5026955;28;20216;-79
2021/09/07 10:36:07;;;;;;;8.63;7.80;;;21.40;99.90;;;;;;5029829;28;20687;-79
2021/09/07 10:38:47;;;;;;;8.80;8.10;;;21.50;99.90;;;;;;5028963;28;20183;-78
2021/09/07 10:41:33;;;;;;;8.93;8.13;;;21.70;99.90;;;;;;5026044;28;20175;-78
2021/09/07 10:44:01;;;;;;;8.63;7.70;;;21.80;99.90;;;;;;5019803;28;20222;-78
2021/09/07 10:46:45;;;;;;;9.17;8.00;;;21.90;99.90;;;;;;5020597;28;20190;-78
2021/09/07 10:49:23;;;;;;;9.73;8.33;;;22.00;99.90;;;;;;5018419;28;20179;-79
2021/09/07 10:52:10;;;;;;;8.50;7.77;;;22.00;99.90;;;;;;5018883;28;20194;-78
2021/09/07 10:54:46;;;;;;;8.80;7.93;;;22.20;99.90;;;;;;5016673;28;20179;-78
2021/09/07 10:57:41;;;;;;;7.87;7.17;;;22.30;99.90;;;;;;5017122;28;20182;-78
2021/09/07 11:00:24;;;;;;;7.53;6.80;;;22.30;99.90;;;;;;5018435;28;20171;-78
2021/09/07 11:02:56;;;;;;;11.97;8.20;;;22.50;99.90;;;;;;5016116;28;20210;-78
2021/09/07 11:05:37;;;;;;;8.20;7.43;;;22.40;99.90;;;;;;5017778;28;20171;-78
2021/09/07 11:08:07;;;;;;;8.73;7.83;;;22.40;99.90;;;;;;5014135;28;20178;-78
2021/09/07 11:10:37;;;;;;;7.80;7.20;;;22.40;99.90;;;;;;5021849;28;20757;-79
2021/09/07 11:13:04;;;;;;;8.13;7.40;;;22.50;99.90;;;;;;5012155;28;20195;-79
2021/09/07 11:15:41;;;;;;;13.50;7.67;;;22.80;99.90;;;;;;5023164;28;20258;-78
2021/09/07 11:18:09;;;;;;;8.20;7.03;;;23.00;99.90;;;;;;5021669;28;20243;-79
2021/09/07 11:20:40;;;;;;;7.20;6.33;;;23.20;99.90;;;;;;5020905;28;20685;-78
2021/09/07 11:23:17;;;;;;;7.33;6.63;;;23.30;99.90;;;;;;5020971;28;20269;-77
2021/09/07 11:25:49;;;;;;;9.40;6.93;;;23.30;99.90;;;;;;5008479;28;20174;-78
2021/09/07 11:28:15;;;;;;;7.27;6.57;;;23.30;99.90;;;;;;5019188;28;20206;-79
2021/09/07 11:30:42;;;;;;;7.57;6.97;;;23.30;99.90;;;;;;5021155;28;20229;-78
2021/09/07 11:33:21;;;;;;;6.97;6.37;;;23.30;99.90;;;;;;5021260;28;20226;-78
2021/09/07 11:35:50;;;;;;;9.20;6.27;;;23.30;99.90;;;;;;5019158;28;20206;-79
2021/09/07 11:38:22;;;;;;;7.13;6.47;;;23.30;99.90;;;;;;5022163;28;20183;-78
2021/09/07 11:40:49;;;;;;;7.23;6.00;;;23.50;99.90;;;;;;5048248;22;20202;-78
2021/09/07 11:43:33;;;;;;;7.23;5.97;;;23.50;99.90;;;;;;5064274;28;20348;-76
2021/09/07 11:46:10;;;;;;;6.27;5.77;;;23.70;99.90;;;;;;5054674;28;20189;-77
2021/09/07 11:48:45;;;;;;;6.43;5.83;;;23.90;99.90;;;;;;5042695;28;20253;-83
2021/09/07 11:51:13;;;;;;;8.47;5.90;;;23.90;99.90;;;;;;5053343;28;20181;-83
2021/09/07 11:53:39;;;;;;;9.90;6.00;;;23.80;99.90;;;;;;5081384;28;20182;-83
2021/09/07 11:56:05;;;;;;;6.03;5.50;;;23.80;99.90;;;;;;5062647;28;20244;-83
2021/09/07 11:58:35;;;;;;;6.13;5.53;;;23.90;99.90;;;;;;5072513;28;20181;-83
2021/09/07 12:01:01;;;;;;;6.90;5.17;;;23.90;99.90;;;;;;5070389;28;20231;-83
2021/09/07 12:03:35;;;;;;;6.17;5.57;;;23.90;99.90;;;;;;5079246;28;20574;-83
2021/09/07 12:06:00;;;;;;;5.40;4.90;;;24.10;99.90;;;;;;5083812;28;20173;-83
2021/09/07 12:08:32;;;;;;;5.67;5.17;;;24.30;99.90;;;;;;5083312;28;20643;-82
2021/09/07 12:10:58;;;;;;;6.50;5.30;;;24.30;99.90;;;;;;5083949;28;20177;-83
2021/09/07 12:13:24;;;;;;;5.63;5.10;;;24.20;99.90;;;;;;5084793;28;20173;-83
2021/09/07 12:15:50;;;;;;;6.00;5.50;;;24.30;99.90;;;;;;5085019;28;20176;-83
2021/09/07 12:18:28;;;;;;;5.17;4.77;;;24.30;99.90;;;;;;5067888;28;20184;-83
2021/09/07 12:21:27;;;;;;;5.07;4.67;;;24.40;99.90;;;;;;5083854;28;20173;-83
2021/09/07 12:23:54;;;;;;;5.00;4.57;;;24.40;99.90;;;;;;5064255;28;20224;-83
2021/09/07 12:26:40;;;;;;;7.93;5.37;;;24.30;99.90;;;;;;5077864;28;20195;-83
2021/09/07 12:29:17;;;;;;;4.83;4.43;;;24.30;99.90;;;;;;5083390;28;20253;-83
2021/09/07 12:31:44;;;;;;;5.70;5.20;;;24.30;99.90;;;;;;5080320;28;20699;-83
2021/09/07 12:34:11;;;;;;;5.17;4.67;;;24.30;99.90;;;;;;5071850;28;20201;-83
2021/09/07 12:36:45;;;;;;;5.57;4.77;;;24.40;99.90;;;;;;5081679;28;20188;-83
2021/09/07 12:39:12;;;;;;;5.33;4.90;;;24.40;99.90;;;;;;5082549;28;20566;-83
2021/09/07 12:41:38;;;;;;;5.13;4.70;;;24.50;99.90;;;;;;5081181;28;20213;-84
2021/09/07 12:44:04;;;;;;;4.77;4.37;;;24.50;99.90;;;;;;5074649;28;20647;-83
2021/09/07 12:46:29;;;;;;;5.37;4.87;;;24.40;99.90;;;;;;5061881;28;20166;-83
2021/09/07 12:48:55;;;;;;;6.10;5.10;;;24.60;99.90;;;;;;5062310;28;20166;-83